createdAt,value
2023-01-29T00:01:56.506Z,-2.60
2023-01-29T00:04:23.948Z,-2.62
2023-01-29T00:06:50.667Z,-2.66
2023-01-29T00:09:17.430Z,-2.69
2023-01-29T00:11:44.174Z,-2.69
2023-01-29T00:14:10.869Z,-2.75
2023-01-29T00:16:37.539Z,-2.80
2023-01-29T00:19:04.460Z,-2.83
2023-01-29T00:21:32.234Z,-2.94
2023-01-29T00:24:00.190Z,-2.98
2023-01-29T00:26:27.659Z,-3.02
2023-01-29T00:28:55.111Z,-3.04
2023-01-29T00:31:24.131Z,-3.08
2023-01-29T00:33:51.123Z,-3.13
2023-01-29T00:36:20.399Z,-3.15
2023-01-29T00:38:54.795Z,-3.30
2023-01-29T00:41:40.487Z,-3.30
2023-01-29T00:44:26.641Z,-3.31
2023-01-29T00:46:53.505Z,-3.40
2023-01-29T00:49:20.511Z,-3.45
2023-01-29T00:52:09.815Z,-3.49
2023-01-29T00:54:37.128Z,-3.61
2023-01-29T00:57:04.405Z,-3.66
2023-01-29T00:59:31.274Z,-3.64
2023-01-29T01:02:16.554Z,-3.65
2023-01-29T01:04:43.175Z,-3.71
2023-01-29T01:09:55.694Z,-3.93
2023-01-29T01:12:23.074Z,-3.90
2023-01-29T01:14:50.081Z,-3.92
2023-01-29T01:17:17.140Z,-3.90
2023-01-29T01:19:43.882Z,-3.97
2023-01-29T01:22:11.083Z,-3.99
2023-01-29T01:24:38.409Z,-3.99
2023-01-29T01:27:05.270Z,-3.97
2023-01-29T01:29:31.986Z,-3.98
2023-01-29T01:31:59.330Z,-4.00
2023-01-29T01:34:27.209Z,-4.06
2023-01-29T01:36:55.990Z,-4.06
2023-01-29T01:39:23.605Z,-4.05
2023-01-29T01:41:50.542Z,-4.06
2023-01-29T01:44:53.005Z,-4.10
2023-01-29T01:47:41.824Z,-4.16
2023-01-29T01:50:12.000Z,-4.19
2023-01-29T01:52:44.103Z,-4.22
2023-01-29T01:55:13.642Z,-4.27
2023-01-29T01:57:43.639Z,-4.25
2023-01-29T02:00:14.270Z,-4.21
2023-01-29T02:03:05.165Z,-4.19
2023-01-29T02:05:53.085Z,-4.25
2023-01-29T02:09:01.611Z,-4.29
2023-01-29T02:11:28.191Z,-4.36
2023-01-29T02:13:54.805Z,-4.36
2023-01-29T02:16:22.121Z,-4.35
2023-01-29T02:18:49.944Z,-4.38
2023-01-29T02:22:00.932Z,-4.39
2023-01-29T02:24:58.224Z,-4.46
2023-01-29T02:27:39.635Z,-4.51
2023-01-29T02:30:26.202Z,-4.53
2023-01-29T02:33:14.262Z,-4.59
2023-01-29T02:35:50.932Z,-4.67
2023-01-29T02:38:43.583Z,-4.70
2023-01-29T02:41:22.315Z,-4.76
2023-01-29T02:44:01.296Z,-4.77
2023-01-29T02:46:39.814Z,-4.77
2023-01-29T02:49:21.635Z,-4.81
2023-01-29T02:52:04.438Z,-4.91
2023-01-29T02:54:51.247Z,-4.89
2023-01-29T02:57:30.771Z,-4.91
2023-01-29T03:00:18.010Z,-4.90
2023-01-29T03:03:02.250Z,-4.87
2023-01-29T03:05:35.230Z,-4.95
2023-01-29T03:08:08.092Z,-4.88
2023-01-29T03:10:43.938Z,-4.89
2023-01-29T03:13:22.978Z,-4.92
2023-01-29T03:16:01.532Z,-4.93
2023-01-29T03:18:33.331Z,-4.94
2023-01-29T03:21:26.625Z,-4.89
2023-01-29T03:24:14.694Z,-4.85
2023-01-29T03:27:02.571Z,-4.81
2023-01-29T03:29:53.672Z,-4.78
2023-01-29T03:32:23.929Z,-4.76
2023-01-29T03:34:57.492Z,-4.76
2023-01-29T03:37:35.071Z,-4.77
2023-01-29T03:40:07.037Z,-4.77
2023-01-29T03:42:51.810Z,-4.70
2023-01-29T03:45:24.517Z,-4.63
2023-01-29T03:48:12.204Z,-4.63
2023-01-29T03:50:44.811Z,-4.57
2023-01-29T03:53:37.635Z,-4.51
2023-01-29T03:56:12.685Z,-4.51
2023-01-29T03:59:04.446Z,-4.43
2023-01-29T04:01:48.670Z,-4.46
2023-01-29T04:04:22.041Z,-4.44
2023-01-29T04:06:53.132Z,-4.40
2023-01-29T04:09:27.806Z,-4.37
2023-01-29T04:12:03.767Z,-4.35
2023-01-29T04:14:31.968Z,-4.30
2023-01-29T04:17:02.892Z,-4.31
2023-01-29T04:19:29.735Z,-4.29
2023-01-29T04:22:13.960Z,-4.25
2023-01-29T04:24:42.365Z,-4.25
2023-01-29T04:27:15.101Z,-4.24
2023-01-29T04:30:19.994Z,-4.27
2023-01-29T04:33:05.502Z,-4.25
2023-01-29T04:35:54.844Z,-4.27
2023-01-29T04:38:32.208Z,-4.31
2023-01-29T04:41:04.218Z,-4.30
2023-01-29T04:43:41.768Z,-4.30
2023-01-29T04:46:28.197Z,-4.30
2023-01-29T04:49:01.352Z,-4.28
2023-01-29T04:51:35.698Z,-4.32
2023-01-29T04:54:27.443Z,-4.26
2023-01-29T04:57:14.849Z,-4.23
2023-01-29T04:59:47.330Z,-4.20
2023-01-29T05:02:14.600Z,-4.18
2023-01-29T05:04:44.628Z,-4.17
2023-01-29T05:07:15.116Z,-4.22
2023-01-29T05:09:45.241Z,-4.19
2023-01-29T05:12:14.904Z,-4.26
2023-01-29T05:14:44.964Z,-4.27
2023-01-29T05:17:20.668Z,-4.30
2023-01-29T05:19:47.639Z,-4.29
2023-01-29T05:22:17.888Z,-4.25
2023-01-29T05:24:44.964Z,-4.18
2023-01-29T05:27:37.258Z,-4.17
2023-01-29T05:30:04.413Z,-4.13
2023-01-29T05:32:31.086Z,-4.08
2023-01-29T05:34:57.743Z,-4.03
2023-01-29T05:37:24.573Z,-4.02
2023-01-29T05:39:51.259Z,-3.96
2023-01-29T05:42:17.877Z,-3.98
2023-01-29T05:44:44.508Z,-4.00
2023-01-29T05:47:11.104Z,-4.03
2023-01-29T05:49:38.850Z,-4.09
2023-01-29T05:52:05.596Z,-4.11
2023-01-29T05:54:32.306Z,-4.07
2023-01-29T05:56:58.964Z,-4.10
2023-01-29T05:59:25.892Z,-4.08
2023-01-29T06:01:52.537Z,-4.10
2023-01-29T06:04:19.452Z,-4.17
2023-01-29T06:06:46.072Z,-4.12
2023-01-29T06:09:12.985Z,-4.10
2023-01-29T06:11:39.856Z,-4.21
2023-01-29T06:14:06.665Z,-4.31
2023-01-29T06:16:33.438Z,-4.25
2023-01-29T06:19:00.476Z,-4.27
2023-01-29T06:21:27.226Z,-4.28
2023-01-29T06:23:54.244Z,-4.31
2023-01-29T06:26:21.337Z,-4.31
2023-01-29T06:28:51.426Z,-4.30
2023-01-29T06:31:37.820Z,-4.28
2023-01-29T06:34:05.629Z,-4.26
2023-01-29T06:36:32.314Z,-4.30
2023-01-29T06:38:59.155Z,-4.29
2023-01-29T06:41:26.017Z,-4.28
2023-01-29T06:43:53.156Z,-4.31
2023-01-29T06:46:20.042Z,-4.30
2023-01-29T06:48:46.829Z,-4.25
2023-01-29T06:51:13.586Z,-4.26
2023-01-29T06:53:40.335Z,-4.26
2023-01-29T06:56:07.754Z,-4.23
2023-01-29T06:58:37.845Z,-4.26
2023-01-29T07:01:06.515Z,-4.28
2023-01-29T07:03:33.224Z,-4.27
2023-01-29T07:05:59.915Z,-4.29
2023-01-29T07:08:26.746Z,-4.22
2023-01-29T07:10:53.445Z,-4.26
2023-01-29T07:13:20.111Z,-4.24
2023-01-29T07:15:46.768Z,-4.29
2023-01-29T07:18:13.461Z,-4.29
2023-01-29T07:20:41.463Z,-4.26
2023-01-29T07:23:11.853Z,-4.23
2023-01-29T07:25:38.844Z,-4.19
2023-01-29T07:28:06.421Z,-4.15
2023-01-29T07:30:33.603Z,-4.13
2023-01-29T07:33:09.061Z,-4.12
2023-01-29T07:35:41.120Z,-4.06
2023-01-29T07:38:09.775Z,-4.06
2023-01-29T07:40:36.786Z,-4.03
2023-01-29T07:43:06.544Z,-4.02
2023-01-29T07:45:37.720Z,-3.91
2023-01-29T07:48:05.888Z,-3.89
2023-01-29T07:50:34.339Z,-3.78
2023-01-29T07:53:01.502Z,-3.74
2023-01-29T07:55:28.255Z,-3.64
2023-01-29T07:57:59.594Z,-3.57
2023-01-29T08:00:27.054Z,-3.47
2023-01-29T08:02:53.808Z,-3.39
2023-01-29T08:05:20.747Z,-3.40
2023-01-29T08:08:05.744Z,-3.32
2023-01-29T08:10:33.770Z,-3.26
2023-01-29T08:13:01.985Z,-3.23
2023-01-29T08:15:29.362Z,-3.30
2023-01-29T08:17:58.066Z,-3.19
2023-01-29T08:20:25.725Z,-3.28
2023-01-29T08:23:00.338Z,-3.20
2023-01-29T08:25:27.668Z,-3.15
2023-01-29T08:27:54.658Z,-3.11
2023-01-29T08:30:21.383Z,-3.25
2023-01-29T08:32:47.995Z,-3.10
2023-01-29T08:35:14.781Z,-3.13
2023-01-29T08:37:41.393Z,-3.13
2023-01-29T08:40:10.925Z,-3.01
2023-01-29T08:42:37.554Z,-3.00
2023-01-29T08:45:04.688Z,-2.97
2023-01-29T08:47:31.323Z,-3.00
2023-01-29T08:49:57.918Z,-3.02
2023-01-29T08:52:24.825Z,-2.89
2023-01-29T08:54:51.439Z,-2.88
2023-01-29T08:57:18.083Z,-2.78
2023-01-29T08:59:44.737Z,-2.83
2023-01-29T09:02:12.121Z,-2.76
2023-01-29T09:04:38.815Z,-2.74
2023-01-29T09:07:05.422Z,-2.92
2023-01-29T09:09:32.100Z,-2.91
2023-01-29T09:11:58.952Z,-2.87
2023-01-29T09:14:25.651Z,-2.85
2023-01-29T09:16:52.326Z,-2.77
2023-01-29T09:19:18.983Z,-2.81
2023-01-29T09:21:45.675Z,-2.78
2023-01-29T09:24:12.268Z,-2.67
2023-01-29T09:26:40.279Z,-2.70
2023-01-29T09:29:09.398Z,-2.62
2023-01-29T09:31:36.140Z,-2.55
2023-01-29T09:34:02.998Z,-2.56
2023-01-29T09:36:29.630Z,-2.65
2023-01-29T09:38:56.318Z,-2.54
2023-01-29T09:41:49.468Z,-2.35
2023-01-29T09:44:25.383Z,-2.22
2023-01-29T09:46:54.925Z,-2.20
2023-01-29T09:49:37.894Z,-2.12
2023-01-29T09:52:17.677Z,-2.12
2023-01-29T09:55:05.758Z,-2.08
2023-01-29T09:57:48.499Z,-1.97
2023-01-29T10:00:20.589Z,-2.17
2023-01-29T10:03:26.744Z,-2.22
2023-01-29T10:06:21.208Z,-2.14
2023-01-29T10:09:06.451Z,-1.98
2023-01-29T10:11:55.785Z,-1.96
2023-01-29T10:14:44.969Z,-1.85
2023-01-29T10:17:11.587Z,-1.67
2023-01-29T10:20:03.566Z,-1.89
2023-01-29T10:22:39.098Z,-1.76
2023-01-29T10:25:12.901Z,-1.74
2023-01-29T10:27:50.946Z,-1.81
2023-01-29T10:30:31.995Z,-1.73
2023-01-29T10:33:03.465Z,-1.71
2023-01-29T10:35:53.795Z,-1.68
2023-01-29T10:38:28.432Z,-1.51
2023-01-29T10:41:18.356Z,-1.69
2023-01-29T10:44:04.966Z,-1.91
2023-01-29T10:46:40.347Z,-1.80
2023-01-29T10:49:30.055Z,-1.76
2023-01-29T10:52:05.377Z,-1.80
2023-01-29T10:55:08.680Z,-1.95
2023-01-29T10:57:41.893Z,-1.99
2023-01-29T11:00:21.589Z,-1.98
2023-01-29T11:02:50.462Z,-1.80
2023-01-29T11:05:35.208Z,-1.62
2023-01-29T11:08:24.177Z,-1.65
2023-01-29T11:11:09.639Z,-1.57
2023-01-29T11:13:42.275Z,-1.44
2023-01-29T11:16:10.065Z,-1.35
2023-01-29T11:18:57.121Z,-1.29
2023-01-29T11:21:25.779Z,-1.41
2023-01-29T11:24:17.398Z,-1.31
2023-01-29T11:26:46.627Z,-1.31
2023-01-29T11:29:48.301Z,-1.28
2023-01-29T11:32:26.185Z,-1.21
2023-01-29T11:34:58.602Z,-1.33
2023-01-29T11:37:36.685Z,-1.39
2023-01-29T11:40:36.660Z,-1.29
2023-01-29T11:43:13.916Z,-1.18
2023-01-29T11:45:40.933Z,-1.44
2023-01-29T11:48:15.896Z,-1.19
2023-01-29T11:50:43.064Z,-1.04
2023-01-29T11:53:59.887Z,-1.01
2023-01-29T11:56:31.822Z,-0.93
2023-01-29T11:58:59.034Z,-0.76
2023-01-29T12:01:36.787Z,-0.87
2023-01-29T12:04:14.122Z,-0.63
2023-01-29T12:06:48.497Z,-0.43
2023-01-29T12:09:21.372Z,-0.37
2023-01-29T12:11:48.181Z,-0.41
2023-01-29T12:14:29.443Z,-0.35
2023-01-29T12:16:58.834Z,-0.15
2023-01-29T12:19:34.400Z,-0.31
2023-01-29T12:22:11.114Z,-0.58
2023-01-29T12:24:52.909Z,-0.53
2023-01-29T12:27:31.114Z,-0.50
2023-01-29T12:30:16.942Z,-0.50
2023-01-29T12:32:56.788Z,-0.59
2023-01-29T12:35:30.772Z,-0.59
2023-01-29T12:38:18.648Z,-0.54
2023-01-29T12:40:57.759Z,-0.55
2023-01-29T12:43:32.897Z,-0.68
2023-01-29T12:46:02.337Z,-0.81
2023-01-29T12:48:33.816Z,-0.79
2023-01-29T12:51:10.339Z,-0.74
2023-01-29T12:53:57.312Z,-1.00
2023-01-29T12:56:34.231Z,-0.79
2023-01-29T12:59:04.917Z,-0.88
2023-01-29T13:01:41.689Z,-0.98
2023-01-29T13:04:41.944Z,-0.91
2023-01-29T13:07:15.057Z,-0.86
2023-01-29T13:09:46.313Z,-0.75
2023-01-29T13:12:21.703Z,-0.89
2023-01-29T13:14:56.383Z,-1.26
2023-01-29T13:17:43.753Z,-1.07
2023-01-29T13:20:17.658Z,-0.91
2023-01-29T13:22:46.669Z,-0.93
2023-01-29T13:25:18.551Z,-0.81
2023-01-29T13:27:47.746Z,-0.66
2023-01-29T13:30:43.662Z,-0.50
2023-01-29T13:33:23.197Z,-0.08
2023-01-29T13:35:59.396Z,0.04
2023-01-29T13:38:29.791Z,0.30
2023-01-29T13:41:01.858Z,0.56
2023-01-29T13:43:41.433Z,0.54
2023-01-29T13:46:17.851Z,0.07
2023-01-29T13:48:48.475Z,0.63
2023-01-29T13:51:20.379Z,0.91
2023-01-29T13:54:02.256Z,1.06
2023-01-29T13:56:28.851Z,1.26
2023-01-29T13:58:57.371Z,1.21
2023-01-29T14:02:04.170Z,1.49
2023-01-29T14:04:32.675Z,1.31
2023-01-29T14:07:03.224Z,1.26
2023-01-29T14:09:36.855Z,1.17
2023-01-29T14:12:05.176Z,0.92
2023-01-29T14:14:56.716Z,0.78
2023-01-29T14:17:25.888Z,0.61
2023-01-29T14:19:58.045Z,0.49
2023-01-29T14:22:27.964Z,0.44
2023-01-29T14:24:58.254Z,0.54
2023-01-29T14:27:25.858Z,0.16
2023-01-29T14:30:00.875Z,0.10
2023-01-29T14:32:28.019Z,0.18
2023-01-29T14:35:01.354Z,0.15
2023-01-29T14:37:38.866Z,0.01
2023-01-29T14:40:20.910Z,-0.14
2023-01-29T14:43:07.395Z,-0.21
2023-01-29T14:45:44.824Z,-0.32
2023-01-29T14:48:11.412Z,-0.43
2023-01-29T14:50:41.609Z,-0.32
2023-01-29T14:53:34.254Z,-0.30
2023-01-29T14:56:18.519Z,-0.38
2023-01-29T14:58:49.514Z,-0.21
2023-01-29T15:01:23.558Z,-0.51
2023-01-29T15:03:51.898Z,-0.49
2023-01-29T15:06:37.962Z,-0.60
2023-01-29T15:09:36.541Z,-0.63
2023-01-29T15:12:29.999Z,-0.76
2023-01-29T15:15:18.602Z,-0.77
2023-01-29T15:17:58.211Z,-0.86
2023-01-29T15:20:50.698Z,-0.90
2023-01-29T15:23:32.377Z,-0.88
2023-01-29T15:26:01.871Z,-0.86
2023-01-29T15:28:34.255Z,-0.83
2023-01-29T15:31:07.764Z,-0.91
2023-01-29T15:33:38.676Z,-0.96
2023-01-29T15:36:07.708Z,-0.90
2023-01-29T15:38:35.016Z,-0.93
2023-01-29T15:41:04.452Z,-1.01
2023-01-29T15:43:43.317Z,-0.91
2023-01-29T15:46:25.040Z,-0.95
2023-01-29T15:48:53.997Z,-1.00
2023-01-29T15:51:26.999Z,-1.10
2023-01-29T15:53:56.700Z,-1.14
2023-01-29T15:56:43.173Z,-1.24
2023-01-29T15:59:17.691Z,-1.23
2023-01-29T16:01:44.431Z,-1.22
2023-01-29T16:04:17.138Z,-1.26
2023-01-29T16:06:44.094Z,-1.17
2023-01-29T16:09:19.079Z,-1.19
2023-01-29T16:11:47.606Z,-1.14
2023-01-29T16:14:19.061Z,-1.17
2023-01-29T16:16:45.827Z,-1.17
2023-01-29T16:19:28.254Z,-1.21
2023-01-29T16:22:01.378Z,-1.21
2023-01-29T16:24:31.218Z,-1.18
2023-01-29T16:27:02.024Z,-1.26
2023-01-29T16:29:33.816Z,-1.31
2023-01-29T16:32:02.485Z,-1.33
2023-01-29T16:34:35.000Z,-1.27
2023-01-29T16:37:04.920Z,-1.29
2023-01-29T16:39:38.630Z,-1.23
2023-01-29T16:42:12.341Z,-1.45
2023-01-29T16:44:46.120Z,-1.47
2023-01-29T16:47:13.949Z,-1.47
2023-01-29T16:49:40.506Z,-1.47
2023-01-29T16:52:25.389Z,-1.46
2023-01-29T16:54:53.548Z,-1.42
2023-01-29T16:57:24.943Z,-1.44
2023-01-29T16:59:59.165Z,-1.39
2023-01-29T17:02:30.390Z,-1.38
2023-01-29T17:05:27.276Z,-1.36
2023-01-29T17:07:56.986Z,-1.31
2023-01-29T17:10:24.830Z,-1.31
2023-01-29T17:12:57.542Z,-1.31
2023-01-29T17:15:43.219Z,-1.30
2023-01-29T17:18:21.624Z,-1.32
2023-01-29T17:20:48.912Z,-1.30
2023-01-29T17:23:15.542Z,-1.31
2023-01-29T17:25:42.382Z,-1.29
2023-01-29T17:28:12.984Z,-1.29
2023-01-29T17:30:39.949Z,-1.31
2023-01-29T17:33:17.857Z,-1.40
2023-01-29T17:35:45.475Z,-1.35
2023-01-29T17:38:24.286Z,-1.31
2023-01-29T17:41:07.395Z,-1.36
2023-01-29T17:43:34.719Z,-1.52
2023-01-29T17:46:01.517Z,-1.48
2023-01-29T17:48:30.115Z,-1.42
2023-01-29T17:51:00.810Z,-1.47
2023-01-29T17:53:43.310Z,-1.52
2023-01-29T17:56:17.078Z,-1.58
2023-01-29T17:58:44.217Z,-1.58
2023-01-29T18:01:11.125Z,-1.55
2023-01-29T18:03:37.833Z,-1.62
2023-01-29T18:06:07.752Z,-1.59
2023-01-29T18:08:36.910Z,-1.59
2023-01-29T18:11:04.006Z,-1.62
2023-01-29T18:13:30.885Z,-1.70
2023-01-29T18:15:57.476Z,-1.70
2023-01-29T18:18:24.577Z,-1.73
2023-01-29T18:20:51.422Z,-1.75
2023-01-29T18:23:18.022Z,-1.75
2023-01-29T18:25:44.894Z,-1.78
2023-01-29T18:28:17.251Z,-1.83
2023-01-29T18:30:47.040Z,-1.86
2023-01-29T18:33:15.151Z,-1.81
2023-01-29T18:35:43.176Z,-1.93
2023-01-29T18:38:09.906Z,-1.97
2023-01-29T18:40:36.608Z,-1.98
2023-01-29T18:43:04.307Z,-1.98
2023-01-29T18:45:31.645Z,-1.98
2023-01-29T18:47:58.388Z,-2.08
2023-01-29T18:50:26.449Z,-2.03
2023-01-29T18:52:54.425Z,-2.06
2023-01-29T18:55:21.863Z,-2.13
2023-01-29T18:58:28.511Z,-2.10
2023-01-29T19:00:39.488Z,-2.14
2023-01-29T19:03:06.143Z,-2.16
2023-01-29T19:05:33.926Z,-2.13
2023-01-29T19:08:01.906Z,-2.18
2023-01-29T19:10:28.778Z,-2.14
2023-01-29T19:12:55.388Z,-2.19
2023-01-29T19:15:22.947Z,-2.23
2023-01-29T19:17:53.089Z,-2.14
2023-01-29T19:20:20.263Z,-2.26
2023-01-29T19:22:47.047Z,-2.22
2023-01-29T19:25:13.784Z,-2.22
2023-01-29T19:27:40.397Z,-2.23
2023-01-29T19:30:08.902Z,-2.26
2023-01-29T19:32:35.819Z,-2.25
2023-01-29T19:35:02.461Z,-2.25
2023-01-29T19:37:30.890Z,-2.29
2023-01-29T19:39:57.631Z,-2.28
2023-01-29T19:42:24.327Z,-2.26
2023-01-29T19:44:52.166Z,-2.28
2023-01-29T19:47:18.987Z,-2.27
2023-01-29T19:49:45.684Z,-2.21
2023-01-29T19:52:49.805Z,-2.23
2023-01-29T19:55:17.674Z,-2.24
2023-01-29T19:57:44.589Z,-2.23
2023-01-29T20:00:15.555Z,-2.20
2023-01-29T20:02:42.272Z,-2.24
2023-01-29T20:05:12.049Z,-2.24
2023-01-29T20:07:41.171Z,-2.19
2023-01-29T20:10:11.396Z,-2.19
2023-01-29T20:12:38.629Z,-2.20
2023-01-29T20:15:07.264Z,-2.23
2023-01-29T20:17:34.014Z,-2.24
2023-01-29T20:20:00.621Z,-2.21
2023-01-29T20:22:27.259Z,-2.19
2023-01-29T20:24:54.377Z,-2.17
2023-01-29T20:27:21.089Z,-2.17
2023-01-29T20:29:47.704Z,-2.16
2023-01-29T20:32:14.792Z,-2.21
2023-01-29T20:34:41.849Z,-2.24
2023-01-29T20:37:08.522Z,-2.25
2023-01-29T20:39:35.111Z,-2.17
2023-01-29T20:42:01.759Z,-2.18
2023-01-29T20:44:28.445Z,-2.13
2023-01-29T20:46:55.104Z,-2.17
2023-01-29T20:49:21.868Z,-2.19
2023-01-29T20:51:48.505Z,-2.20
2023-01-29T20:54:15.250Z,-2.20
2023-01-29T20:56:44.180Z,-2.16
2023-01-29T20:59:13.083Z,-2.17
2023-01-29T21:01:39.721Z,-2.15
2023-01-29T21:04:06.350Z,-2.10
2023-01-29T21:06:33.053Z,-2.12
2023-01-29T21:08:59.668Z,-2.07
2023-01-29T21:11:26.408Z,-2.08
2023-01-29T21:13:57.555Z,-2.10
2023-01-29T21:16:26.334Z,-2.14
2023-01-29T21:18:59.331Z,-2.11
2023-01-29T21:21:26.813Z,-2.11
2023-01-29T21:23:54.179Z,-2.12
2023-01-29T21:26:21.580Z,-2.13
2023-01-29T21:28:48.237Z,-2.06
2023-01-29T21:31:16.943Z,-2.07
2023-01-29T21:33:44.391Z,-2.09
2023-01-29T21:36:11.772Z,-2.05
2023-01-29T21:38:39.076Z,-2.05
2023-01-29T21:41:08.922Z,-1.99
2023-01-29T21:43:36.592Z,-1.95
2023-01-29T21:46:11.361Z,-1.92
2023-01-29T21:48:39.412Z,-1.98
2023-01-29T21:51:06.765Z,-1.91
2023-01-29T21:53:33.591Z,-1.96
2023-01-29T21:56:05.037Z,-1.96
2023-01-29T21:58:31.779Z,-1.95
2023-01-29T22:01:18.560Z,-1.93
2023-01-29T22:03:47.161Z,-1.88
2023-01-29T22:06:14.137Z,-1.88
2023-01-29T22:08:40.752Z,-1.89
2023-01-29T22:11:07.807Z,-1.90
2023-01-29T22:13:34.630Z,-1.90
2023-01-29T22:16:01.235Z,-1.91
2023-01-29T22:18:27.947Z,-1.95
2023-01-29T22:20:56.261Z,-1.94
2023-01-29T22:23:24.122Z,-1.96
2023-01-29T22:25:50.899Z,-1.94
2023-01-29T22:28:18.410Z,-1.91
2023-01-29T22:30:45.233Z,-1.95
2023-01-29T22:33:12.336Z,-1.93
2023-01-29T22:35:38.903Z,-1.89
2023-01-29T22:38:05.830Z,-1.89
2023-01-29T22:40:32.431Z,-1.92
2023-01-29T22:42:59.110Z,-1.86
2023-01-29T22:45:25.721Z,-1.91
2023-01-29T22:47:52.336Z,-1.89
2023-01-29T22:50:19.345Z,-1.84
2023-01-29T22:52:54.205Z,-1.83
2023-01-29T22:55:21.149Z,-1.84
2023-01-29T22:57:51.266Z,-1.82
2023-01-29T23:00:18.793Z,-1.82
2023-01-29T23:02:49.632Z,-1.85
2023-01-29T23:05:17.323Z,-1.87
2023-01-29T23:07:44.656Z,-1.86
2023-01-29T23:10:15.705Z,-1.77
2023-01-29T23:12:42.555Z,-1.76
2023-01-29T23:15:09.408Z,-1.78
2023-01-29T23:17:36.088Z,-1.74
2023-01-29T23:20:03.680Z,-1.71
2023-01-29T23:22:30.362Z,-1.67
2023-01-29T23:24:56.993Z,-1.70
2023-01-29T23:27:23.708Z,-1.71
2023-01-29T23:29:50.347Z,-1.65
2023-01-29T23:32:19.362Z,-1.62
2023-01-29T23:34:46.205Z,-1.68
2023-01-29T23:37:13.226Z,-1.70
2023-01-29T23:39:39.889Z,-1.67
2023-01-29T23:42:06.494Z,-1.69
2023-01-29T23:44:33.100Z,-1.71
2023-01-29T23:46:59.797Z,-1.70
2023-01-29T23:49:26.495Z,-1.70
2023-01-29T23:51:53.536Z,-1.69
2023-01-29T23:54:20.246Z,-1.71
2023-01-29T23:56:46.897Z,-1.72
2023-01-29T23:59:13.650Z,-1.78
